createdAt,value
2022-12-29T00:02:00.033Z,1.38
2022-12-29T00:04:26.699Z,0.82
2022-12-29T00:06:54.343Z,0.90
2022-12-29T00:09:21.421Z,0.85
2022-12-29T00:12:12.495Z,1.83
2022-12-29T00:14:57.667Z,1.02
2022-12-29T00:17:24.368Z,0.73
2022-12-29T00:20:09.719Z,1.00
2022-12-29T00:23:20.814Z,0.98
2022-12-29T00:26:05.967Z,1.13
2022-12-29T00:28:57.677Z,0.75
2022-12-29T00:31:42.858Z,1.50
2022-12-29T00:34:30.963Z,0.90
2022-12-29T00:36:58.124Z,1.10
2022-12-29T00:39:43.695Z,1.05
2022-12-29T00:42:59.719Z,1.00
2022-12-29T00:45:26.438Z,1.15
2022-12-29T00:47:53.089Z,0.77
2022-12-29T00:50:19.762Z,0.98
2022-12-29T00:52:52.826Z,0.95
2022-12-29T00:55:39.292Z,1.70
2022-12-29T00:58:05.982Z,0.75
2022-12-29T01:00:32.721Z,0.70
2022-12-29T01:02:59.584Z,0.75
2022-12-29T01:05:26.423Z,1.17
2022-12-29T01:07:53.070Z,1.00
2022-12-29T01:10:19.701Z,0.88
2022-12-29T01:12:46.481Z,0.80
2022-12-29T01:23:32.244Z,0.95
2022-12-29T01:26:34.529Z,0.70
2022-12-29T01:29:35.655Z,0.82
2022-12-29T01:32:02.361Z,0.93
2022-12-29T01:39:06.666Z,1.15
2022-12-29T01:42:20.635Z,0.98
2022-12-29T01:45:04.772Z,2.20
2022-12-29T01:47:53.113Z,1.02
2022-12-29T01:55:05.636Z,1.42
2022-12-29T01:58:06.605Z,0.80
2022-12-29T02:01:09.251Z,0.55
2022-12-29T02:03:36.882Z,1.02
2022-12-29T02:06:23.642Z,0.82
2022-12-29T02:09:14.135Z,1.80
2022-12-29T02:12:21.850Z,0.80
2022-12-29T02:15:00.837Z,2.33
2022-12-29T02:17:57.483Z,1.20
2022-12-29T02:20:36.235Z,0.98
2022-12-29T02:23:27.982Z,0.57
2022-12-29T02:26:55.688Z,0.93
2022-12-29T02:29:54.762Z,0.95
2022-12-29T02:32:33.539Z,1.30
2022-12-29T02:35:34.652Z,0.88
2022-12-29T02:38:24.500Z,1.05
2022-12-29T02:49:11.222Z,0.70
2022-12-29T02:55:36.876Z,0.90
2022-12-29T03:05:42.992Z,1.00
2022-12-29T03:09:21.206Z,1.35
2022-12-29T03:12:14.456Z,1.15
2022-12-29T03:15:25.123Z,0.75
2022-12-29T03:18:11.425Z,1.08
2022-12-29T03:20:45.257Z,0.95
2022-12-29T03:23:13.640Z,1.30
2022-12-29T03:25:53.923Z,0.85
2022-12-29T03:37:17.800Z,0.70
2022-12-29T03:42:54.484Z,0.63
2022-12-29T03:45:59.377Z,0.70
2022-12-29T03:48:26.078Z,0.50
2022-12-29T03:50:52.721Z,0.70
2022-12-29T03:53:41.212Z,0.90
2022-12-29T03:56:07.921Z,1.30
2022-12-29T04:02:25.418Z,1.10
2022-12-29T04:05:17.766Z,0.80
2022-12-29T04:07:47.010Z,0.80
2022-12-29T04:11:11.137Z,1.13
2022-12-29T04:13:41.859Z,1.10
2022-12-29T04:16:09.560Z,0.70
2022-12-29T04:18:36.220Z,0.95
2022-12-29T04:24:55.888Z,0.98
2022-12-29T04:31:33.215Z,0.70
2022-12-29T04:38:29.788Z,0.60
2022-12-29T04:40:56.478Z,0.80
2022-12-29T04:43:23.331Z,2.08
2022-12-29T04:49:40.232Z,1.05
2022-12-29T05:00:20.710Z,3.30
2022-12-29T05:06:58.330Z,2.55
2022-12-29T05:13:19.527Z,1.60
2022-12-29T05:15:54.607Z,1.45
2022-12-29T05:19:01.824Z,1.40
2022-12-29T05:21:28.477Z,2.00
2022-12-29T05:23:55.092Z,1.23
2022-12-29T05:26:21.761Z,1.25
2022-12-29T05:28:48.426Z,1.48
2022-12-29T05:35:06.213Z,1.45
2022-12-29T05:37:32.865Z,1.08
2022-12-29T05:40:12.726Z,2.05
2022-12-29T05:42:39.464Z,1.88
2022-12-29T05:45:08.239Z,1.13
2022-12-29T05:47:35.686Z,1.30
2022-12-29T05:50:03.002Z,1.48
2022-12-29T05:52:29.668Z,1.10
2022-12-29T06:07:07.971Z,1.27
2022-12-29T06:10:00.783Z,0.93
2022-12-29T06:12:27.510Z,3.05
2022-12-29T06:14:55.449Z,1.50
2022-12-29T06:18:19.584Z,2.20
2022-12-29T06:21:40.634Z,1.08
2022-12-29T06:25:10.634Z,1.90
2022-12-29T06:35:19.137Z,1.38
2022-12-29T06:37:45.748Z,1.55
2022-12-29T06:44:02.951Z,1.35
2022-12-29T06:50:48.724Z,3.10
2022-12-29T06:53:17.859Z,1.67
2022-12-29T06:55:52.042Z,1.80
2022-12-29T06:58:18.711Z,1.40
2022-12-29T07:00:45.405Z,1.45
2022-12-29T07:03:12.240Z,1.40
2022-12-29T07:05:38.928Z,1.65
2022-12-29T07:08:22.177Z,2.15
2022-12-29T07:10:48.877Z,0.93
2022-12-29T07:14:15.574Z,1.63
2022-12-29T07:17:26.659Z,1.95
2022-12-29T07:19:53.310Z,3.22
2022-12-29T07:22:19.950Z,1.70
2022-12-29T07:28:49.534Z,2.47
2022-12-29T07:31:44.050Z,2.03
2022-12-29T07:34:10.904Z,1.75
2022-12-29T07:37:42.822Z,2.00
2022-12-29T07:40:11.201Z,2.25
2022-12-29T07:43:34.685Z,2.88
2022-12-29T07:46:01.674Z,1.40
2022-12-29T07:48:28.449Z,3.00
2022-12-29T07:55:27.009Z,2.60
2022-12-29T08:01:51.380Z,1.98
2022-12-29T08:04:18.297Z,0.88
2022-12-29T08:06:46.533Z,1.30
2022-12-29T08:13:03.862Z,1.95
2022-12-29T08:15:32.663Z,2.65
2022-12-29T08:18:01.837Z,1.40
2022-12-29T08:20:31.185Z,2.25
2022-12-29T08:22:58.168Z,1.10
2022-12-29T08:33:46.897Z,0.82
2022-12-29T08:36:33.922Z,0.68
2022-12-29T08:43:21.887Z,1.30
2022-12-29T08:45:48.519Z,2.78
2022-12-29T08:48:37.657Z,1.58
2022-12-29T08:51:39.110Z,2.17
2022-12-29T08:54:05.863Z,1.67
2022-12-29T08:56:32.725Z,1.98
2022-12-29T08:58:59.359Z,1.13
2022-12-29T09:01:26.220Z,1.20
2022-12-29T09:04:14.306Z,1.20
2022-12-29T09:07:02.148Z,0.85
2022-12-29T09:09:28.806Z,1.02
2022-12-29T09:11:55.448Z,1.08
2022-12-29T09:14:58.397Z,1.95
2022-12-29T09:20:35.514Z,1.35
2022-12-29T09:23:14.355Z,1.05
2022-12-29T09:25:41.010Z,3.17
2022-12-29T09:28:08.733Z,1.58
2022-12-29T09:30:35.415Z,1.88
2022-12-29T09:33:02.077Z,1.60
2022-12-29T09:35:29.372Z,2.20
2022-12-29T09:37:56.030Z,2.00
2022-12-29T09:41:15.537Z,3.05
2022-12-29T09:44:27.198Z,1.00
2022-12-29T09:47:49.686Z,0.90
2022-12-29T09:50:38.224Z,1.15
2022-12-29T09:53:23.736Z,1.75
2022-12-29T09:56:24.443Z,0.82
2022-12-29T09:59:18.384Z,1.35
2022-12-29T10:02:17.682Z,1.48
2022-12-29T10:05:06.103Z,1.27
2022-12-29T10:12:33.541Z,0.90
2022-12-29T10:15:27.863Z,0.80
2022-12-29T10:18:15.608Z,0.82
2022-12-29T10:21:13.900Z,1.55
2022-12-29T10:32:18.781Z,2.25
2022-12-29T10:34:59.386Z,2.20
2022-12-29T10:38:02.738Z,2.95
2022-12-29T10:40:55.530Z,1.60
2022-12-29T10:46:12.268Z,2.38
2022-12-29T10:48:59.234Z,1.08
2022-12-29T10:51:30.390Z,1.67
2022-12-29T10:54:00.398Z,1.25
2022-12-29T10:56:41.628Z,1.40
2022-12-29T10:59:26.375Z,1.20
2022-12-29T11:14:18.991Z,2.03
2022-12-29T11:16:57.919Z,3.17
2022-12-29T11:19:28.414Z,1.58
2022-12-29T11:21:55.755Z,0.85
2022-12-29T11:25:03.034Z,0.80
2022-12-29T11:27:40.870Z,2.45
2022-12-29T11:31:06.037Z,1.27
2022-12-29T11:34:17.531Z,0.90
2022-12-29T11:36:44.233Z,0.93
2022-12-29T11:39:27.122Z,0.70
2022-12-29T11:41:54.922Z,0.55
2022-12-29T11:44:21.869Z,0.73
2022-12-29T11:46:52.652Z,2.15
2022-12-29T11:49:42.717Z,0.85
2022-12-29T11:56:05.809Z,0.60
2022-12-29T11:58:35.768Z,0.70
2022-12-29T12:01:07.733Z,0.98
2022-12-29T12:03:39.284Z,0.63
2022-12-29T12:06:09.581Z,1.35
2022-12-29T12:08:54.441Z,0.55
2022-12-29T12:11:37.955Z,0.77
2022-12-29T12:14:20.349Z,0.40
2022-12-29T12:17:04.679Z,0.73
2022-12-29T12:19:43.784Z,0.90
2022-12-29T12:22:46.382Z,0.82
2022-12-29T12:25:22.792Z,0.52
2022-12-29T12:28:03.972Z,0.93
2022-12-29T12:30:43.235Z,0.90
2022-12-29T12:33:32.012Z,2.65
2022-12-29T12:36:47.569Z,1.40
2022-12-29T12:39:26.435Z,1.33
2022-12-29T12:42:19.383Z,1.45
2022-12-29T12:44:57.235Z,1.92
2022-12-29T12:47:52.203Z,1.42
2022-12-29T12:50:39.314Z,1.50
2022-12-29T12:53:26.129Z,1.00
2022-12-29T12:56:30.251Z,1.48
2022-12-29T12:59:44.906Z,1.00
2022-12-29T13:02:11.615Z,1.45
2022-12-29T13:04:48.509Z,1.13
2022-12-29T13:07:38.802Z,2.33
2022-12-29T13:10:41.950Z,2.95
2022-12-29T13:13:30.433Z,9.15
2022-12-29T13:16:31.632Z,9.05
2022-12-29T13:19:35.609Z,5.70
2022-12-29T13:22:38.093Z,4.97
2022-12-29T13:25:31.116Z,14.13
2022-12-29T13:28:19.556Z,2.58
2022-12-29T13:31:15.244Z,2.30
2022-12-29T13:33:47.693Z,3.33
2022-12-29T13:36:29.331Z,3.95
2022-12-29T13:39:22.985Z,3.30
2022-12-29T13:41:54.295Z,4.75
2022-12-29T13:45:06.244Z,5.25
2022-12-29T13:47:42.503Z,1.90
2022-12-29T13:50:19.453Z,6.57
2022-12-29T13:53:10.781Z,3.08
2022-12-29T13:55:50.125Z,2.17
2022-12-29T13:58:25.727Z,2.85
2022-12-29T14:01:03.948Z,1.55
2022-12-29T14:04:09.056Z,2.20
2022-12-29T14:14:32.238Z,2.05
2022-12-29T14:17:16.160Z,1.40
2022-12-29T14:19:45.701Z,1.38
2022-12-29T14:23:22.173Z,2.03
2022-12-29T14:26:13.607Z,1.23
2022-12-29T14:28:49.183Z,1.98
2022-12-29T14:31:30.775Z,1.80
2022-12-29T14:34:12.496Z,2.27
2022-12-29T14:41:20.530Z,1.48
2022-12-29T14:44:00.745Z,1.10
2022-12-29T14:47:00.094Z,1.45
2022-12-29T14:49:34.327Z,2.00
2022-12-29T14:52:24.929Z,2.28
2022-12-29T14:54:53.887Z,1.85
2022-12-29T14:58:13.723Z,2.08
2022-12-29T15:01:40.812Z,2.03
2022-12-29T15:04:19.331Z,2.03
2022-12-29T15:15:00.274Z,2.25
2022-12-29T15:17:29.145Z,1.58
2022-12-29T15:19:57.943Z,1.17
2022-12-29T15:23:11.986Z,0.82
2022-12-29T15:26:12.803Z,1.60
2022-12-29T15:33:35.310Z,1.65
2022-12-29T15:36:04.992Z,1.33
2022-12-29T15:38:37.241Z,1.60
2022-12-29T15:42:05.465Z,3.55
2022-12-29T15:44:42.595Z,4.63
2022-12-29T15:48:16.585Z,2.40
2022-12-29T15:50:44.234Z,6.35
2022-12-29T15:53:29.709Z,2.80
2022-12-29T15:56:03.890Z,2.83
2022-12-29T15:58:31.753Z,4.05
2022-12-29T16:01:05.437Z,2.30
2022-12-29T16:07:56.281Z,3.15
2022-12-29T16:10:36.984Z,4.72
2022-12-29T16:13:35.534Z,36.10
2022-12-29T16:16:17.427Z,11.30
2022-12-29T16:18:45.720Z,6.47
2022-12-29T16:25:52.532Z,4.57
2022-12-29T16:28:26.285Z,4.30
2022-12-29T16:31:24.834Z,3.17
2022-12-29T16:34:32.887Z,3.85
2022-12-29T16:37:23.627Z,3.15
2022-12-29T16:40:21.279Z,2.50
2022-12-29T16:43:36.431Z,3.45
2022-12-29T16:46:31.112Z,3.30
2022-12-29T16:49:21.924Z,4.07
2022-12-29T16:51:49.161Z,8.93
2022-12-29T16:54:59.201Z,9.40
2022-12-29T16:57:32.802Z,5.82
2022-12-29T17:00:33.009Z,4.32
2022-12-29T17:03:46.599Z,9.95
2022-12-29T17:06:17.921Z,5.60
2022-12-29T17:09:02.471Z,4.13
2022-12-29T17:11:57.730Z,5.60
2022-12-29T17:14:45.639Z,6.00
2022-12-29T17:17:20.677Z,7.00
2022-12-29T17:23:32.827Z,3.58
2022-12-29T17:25:59.699Z,3.80
2022-12-29T17:32:17.101Z,1.92
2022-12-29T17:34:43.827Z,2.28
2022-12-29T17:37:37.998Z,2.70
2022-12-29T17:50:26.837Z,3.85
2022-12-29T17:57:04.819Z,2.80
2022-12-29T17:59:39.845Z,2.92
2022-12-29T18:02:39.912Z,2.75
2022-12-29T18:05:42.769Z,6.22
2022-12-29T18:08:12.024Z,2.55
2022-12-29T18:10:40.046Z,2.55
2022-12-29T18:13:07.301Z,1.98
2022-12-29T18:15:36.363Z,2.28
2022-12-29T18:18:14.441Z,1.90
2022-12-29T18:20:43.235Z,3.20
2022-12-29T18:23:21.995Z,3.42
2022-12-29T18:26:50.639Z,4.13
2022-12-29T18:36:53.120Z,5.60
2022-12-29T18:39:20.647Z,7.05
2022-12-29T18:42:27.021Z,7.93
2022-12-29T18:44:53.661Z,6.32
2022-12-29T18:47:23.950Z,7.97
2022-12-29T18:50:11.355Z,5.85
2022-12-29T18:52:37.999Z,5.30
2022-12-29T18:58:44.884Z,4.47
2022-12-29T19:01:37.839Z,5.18
2022-12-29T19:04:28.271Z,9.48
2022-12-29T19:06:54.919Z,4.00
2022-12-29T19:09:21.538Z,5.38
2022-12-29T19:11:48.625Z,5.60
2022-12-29T19:14:17.493Z,4.32
2022-12-29T19:16:44.422Z,6.47
2022-12-29T19:19:15.101Z,5.18
2022-12-29T19:21:42.185Z,7.50
2022-12-29T19:24:08.885Z,4.45
2022-12-29T19:26:38.130Z,3.78
2022-12-29T19:29:06.871Z,5.15
2022-12-29T19:32:15.934Z,5.95
2022-12-29T19:34:58.289Z,5.88
2022-12-29T19:37:24.963Z,8.82
2022-12-29T19:39:51.705Z,9.50
2022-12-29T19:42:18.342Z,5.63
2022-12-29T19:52:27.613Z,5.10
2022-12-29T19:55:13.377Z,6.40
2022-12-29T19:58:03.210Z,4.07
2022-12-29T20:00:40.166Z,6.80
2022-12-29T20:03:41.828Z,5.07
2022-12-29T20:06:28.781Z,5.75
2022-12-29T20:09:15.999Z,6.07
2022-12-29T20:11:43.963Z,6.28
2022-12-29T20:14:40.216Z,8.70
2022-12-29T20:18:11.796Z,8.40
2022-12-29T20:28:08.550Z,4.78
2022-12-29T20:30:35.719Z,3.97
2022-12-29T20:33:08.000Z,4.97
2022-12-29T20:39:56.303Z,5.85
2022-12-29T20:42:43.215Z,6.70
2022-12-29T20:45:10.103Z,6.45
2022-12-29T20:52:07.336Z,7.10
2022-12-29T20:54:39.164Z,5.05
2022-12-29T21:00:01.078Z,5.88
2022-12-29T21:02:27.908Z,6.72
2022-12-29T21:09:22.996Z,8.07
2022-12-29T21:11:49.696Z,8.35
2022-12-29T21:14:16.766Z,8.30
2022-12-29T21:22:17.650Z,9.40
2022-12-29T21:25:25.077Z,7.18
2022-12-29T21:27:52.920Z,7.78
2022-12-29T21:30:19.613Z,9.00
2022-12-29T21:33:34.672Z,8.27
2022-12-29T21:51:51.218Z,8.15
2022-12-29T21:54:44.774Z,7.15
2022-12-29T21:57:19.349Z,5.10
2022-12-29T22:00:06.367Z,5.30
2022-12-29T22:02:51.433Z,4.55
2022-12-29T22:05:48.547Z,6.22
2022-12-29T22:08:34.149Z,6.53
2022-12-29T22:11:19.403Z,5.22
2022-12-29T22:13:46.101Z,5.25
2022-12-29T22:16:12.981Z,4.10
2022-12-29T22:18:39.793Z,4.57
2022-12-29T22:21:08.257Z,3.95
2022-12-29T22:23:36.378Z,3.30
2022-12-29T22:26:57.889Z,4.03
2022-12-29T22:29:26.839Z,4.15
2022-12-29T22:32:46.745Z,4.00
2022-12-29T22:35:20.904Z,2.65
2022-12-29T22:37:47.564Z,3.78
2022-12-29T22:40:14.254Z,4.07
2022-12-29T22:42:40.994Z,4.00
2022-12-29T22:45:08.515Z,2.95
2022-12-29T22:47:35.501Z,2.47
2022-12-29T22:50:02.642Z,3.17
2022-12-29T22:52:29.433Z,4.13
2022-12-29T22:55:04.574Z,2.47
2022-12-29T22:58:29.248Z,2.78
2022-12-29T23:01:17.940Z,2.70
2022-12-29T23:05:02.849Z,3.08
2022-12-29T23:07:31.236Z,3.03
2022-12-29T23:09:57.875Z,2.33
2022-12-29T23:12:58.313Z,2.67
2022-12-29T23:15:44.069Z,1.90
2022-12-29T23:18:17.674Z,2.72
2022-12-29T23:25:01.582Z,2.33
2022-12-29T23:31:56.904Z,1.67
2022-12-29T23:43:41.027Z,1.20
2022-12-29T23:46:15.594Z,1.17
2022-12-29T23:48:42.891Z,1.73
2022-12-29T23:51:10.346Z,1.33
2022-12-29T23:57:50.608Z,1.15
